sensor_id;sensor_type;location;lat;lon;timestamp;pressure;altitude;pressure_sealevel;temperature;humidity
31088;BME280;17745;55.914;37.554;2023-03-15T00:01:21;98415.47;;;7.62;39.69
31088;BME280;17745;55.914;37.554;2023-03-15T00:03:52;98419.91;;;7.56;39.85
31088;BME280;17745;55.914;37.554;2023-03-15T00:06:22;98422.75;;;7.50;40.01
31088;BME280;17745;55.914;37.554;2023-03-15T00:08:50;98434.06;;;7.50;40.04
31088;BME280;17745;55.914;37.554;2023-03-15T00:11:18;98426.78;;;7.57;39.93
31088;BME280;17745;55.914;37.554;2023-03-15T00:13:45;98431.25;;;7.57;39.98
31088;BME280;17745;55.914;37.554;2023-03-15T00:16:13;98433.81;;;7.47;40.16
31088;BME280;17745;55.914;37.554;2023-03-15T00:18:43;98443.28;;;7.48;40.21
31088;BME280;17745;55.914;37.554;2023-03-15T00:21:11;98437.00;;;7.54;40.16
31088;BME280;17745;55.914;37.554;2023-03-15T00:23:40;98435.72;;;7.56;40.14
31088;BME280;17745;55.914;37.554;2023-03-15T00:26:08;98431.50;;;7.55;40.29
31088;BME280;17745;55.914;37.554;2023-03-15T00:28:35;98432.22;;;7.46;40.51
31088;BME280;17745;55.914;37.554;2023-03-15T00:31:14;98435.12;;;7.49;40.45
31088;BME280;17745;55.914;37.554;2023-03-15T00:34:44;98427.22;;;7.49;40.50
31088;BME280;17745;55.914;37.554;2023-03-15T00:37:14;98440.91;;;7.46;40.61
31088;BME280;17745;55.914;37.554;2023-03-15T00:39:44;98439.06;;;7.47;40.59
31088;BME280;17745;55.914;37.554;2023-03-15T00:42:12;98439.31;;;7.45;40.68
31088;BME280;17745;55.914;37.554;2023-03-15T00:45:03;98435.88;;;7.44;40.77
31088;BME280;17745;55.914;37.554;2023-03-15T00:47:55;98446.97;;;7.47;40.81
31088;BME280;17745;55.914;37.554;2023-03-15T00:50:23;98451.97;;;7.48;40.78
31088;BME280;17745;55.914;37.554;2023-03-15T00:52:50;98437.41;;;7.40;41.00
31088;BME280;17745;55.914;37.554;2023-03-15T00:55:19;98437.72;;;7.44;40.97
31088;BME280;17745;55.914;37.554;2023-03-15T00:57:47;98440.84;;;7.41;41.07
31088;BME280;17745;55.914;37.554;2023-03-15T01:02:50;98435.62;;;7.46;41.19
31088;BME280;17745;55.914;37.554;2023-03-15T01:05:18;98441.97;;;7.50;41.13
31088;BME280;17745;55.914;37.554;2023-03-15T01:07:46;98432.75;;;7.48;41.22
31088;BME280;17745;55.914;37.554;2023-03-15T01:10:14;98445.66;;;7.49;41.27
31088;BME280;17745;55.914;37.554;2023-03-15T01:12:44;98452.16;;;7.41;41.51
31088;BME280;17745;55.914;37.554;2023-03-15T01:15:14;98440.56;;;7.37;41.60
31088;BME280;17745;55.914;37.554;2023-03-15T01:17:43;98446.37;;;7.39;41.59
31088;BME280;17745;55.914;37.554;2023-03-15T01:20:11;98418.94;;;7.35;41.71
31088;BME280;17745;55.914;37.554;2023-03-15T01:22:41;98431.53;;;7.28;41.92
31088;BME280;17745;55.914;37.554;2023-03-15T01:25:09;98447.59;;;7.32;41.93
31088;BME280;17745;55.914;37.554;2023-03-15T01:27:36;98426.31;;;7.33;41.91
31088;BME280;17745;55.914;37.554;2023-03-15T01:30:07;98422.63;;;7.34;41.97
31088;BME280;17745;55.914;37.554;2023-03-15T01:32:35;98429.19;;;7.32;42.13
31088;BME280;17745;55.914;37.554;2023-03-15T01:35:03;98442.69;;;7.40;42.03
31088;BME280;17745;55.914;37.554;2023-03-15T01:37:31;98430.72;;;7.27;42.30
31088;BME280;17745;55.914;37.554;2023-03-15T01:39:59;98432.91;;;7.36;42.24
31088;BME280;17745;55.914;37.554;2023-03-15T01:42:29;98434.78;;;7.40;42.17
31088;BME280;17745;55.914;37.554;2023-03-15T01:44:58;98439.81;;;7.42;42.20
31088;BME280;17745;55.914;37.554;2023-03-15T01:47:27;98435.31;;;7.42;42.24
31088;BME280;17745;55.914;37.554;2023-03-15T01:50:02;98440.31;;;7.39;42.45
31088;BME280;17745;55.914;37.554;2023-03-15T01:52:35;98444.38;;;7.52;42.28
31088;BME280;17745;55.914;37.554;2023-03-15T01:55:07;98438.06;;;7.53;42.31
31088;BME280;17745;55.914;37.554;2023-03-15T01:57:40;98428.59;;;7.57;42.26
31088;BME280;17745;55.914;37.554;2023-03-15T02:00:13;98448.19;;;7.66;42.20
31088;BME280;17745;55.914;37.554;2023-03-15T02:02:49;98450.56;;;7.68;42.23
31088;BME280;17745;55.914;37.554;2023-03-15T02:05:25;98439.78;;;7.69;42.24
31088;BME280;17745;55.914;37.554;2023-03-15T02:07:54;98445.03;;;7.69;42.25
31088;BME280;17745;55.914;37.554;2023-03-15T02:10:26;98440.81;;;7.68;42.30
31088;BME280;17745;55.914;37.554;2023-03-15T02:13:00;98443.69;;;7.67;42.35
31088;BME280;17745;55.914;37.554;2023-03-15T02:15:32;98441.81;;;7.62;42.42
31088;BME280;17745;55.914;37.554;2023-03-15T02:18:04;98454.97;;;7.62;42.44
31088;BME280;17745;55.914;37.554;2023-03-15T02:20:59;98446.25;;;7.56;42.51
31088;BME280;17745;55.914;37.554;2023-03-15T02:23:28;98449.66;;;7.52;42.62
31088;BME280;17745;55.914;37.554;2023-03-15T02:26:04;98444.03;;;7.43;42.74
31088;BME280;17745;55.914;37.554;2023-03-15T02:28:52;98459.53;;;7.39;42.92
31088;BME280;17745;55.914;37.554;2023-03-15T02:31:47;98447.94;;;7.40;42.98
31088;BME280;17745;55.914;37.554;2023-03-15T02:34:15;98457.41;;;7.36;43.10
31088;BME280;17745;55.914;37.554;2023-03-15T02:36:42;98448.97;;;7.34;43.19
31088;BME280;17745;55.914;37.554;2023-03-15T02:39:15;98455.31;;;7.38;43.15
31088;BME280;17745;55.914;37.554;2023-03-15T02:41:47;98452.94;;;7.37;43.28
31088;BME280;17745;55.914;37.554;2023-03-15T02:44:19;98451.34;;;7.36;43.29
31088;BME280;17745;55.914;37.554;2023-03-15T02:46:51;98457.91;;;7.33;43.36
31088;BME280;17745;55.914;37.554;2023-03-15T02:49:22;98459.50;;;7.34;43.40
31088;BME280;17745;55.914;37.554;2023-03-15T02:51:53;98446.28;;;7.29;43.48
31088;BME280;17745;55.914;37.554;2023-03-15T02:54:21;98449.97;;;7.28;43.54
31088;BME280;17745;55.914;37.554;2023-03-15T02:56:48;98447.56;;;7.26;43.65
31088;BME280;17745;55.914;37.554;2023-03-15T02:59:18;98444.38;;;7.24;43.71
31088;BME280;17745;55.914;37.554;2023-03-15T03:01:45;98452.28;;;7.24;43.76
31088;BME280;17745;55.914;37.554;2023-03-15T03:04:13;98428.59;;;7.24;43.80
31088;BME280;17745;55.914;37.554;2023-03-15T03:06:40;98454.69;;;7.26;43.81
31088;BME280;17745;55.914;37.554;2023-03-15T03:09:09;98449.66;;;7.24;43.94
31088;BME280;17745;55.914;37.554;2023-03-15T03:11:38;98454.63;;;7.21;44.03
31088;BME280;17745;55.914;37.554;2023-03-15T03:14:05;98445.66;;;7.22;44.07
31088;BME280;17745;55.914;37.554;2023-03-15T03:16:34;98433.56;;;7.21;44.09
31088;BME280;17745;55.914;37.554;2023-03-15T03:19:01;98444.91;;;7.21;44.17
31088;BME280;17745;55.914;37.554;2023-03-15T03:21:30;98461.97;;;7.19;44.27
31088;BME280;17745;55.914;37.554;2023-03-15T03:23:59;98439.59;;;7.16;44.34
31088;BME280;17745;55.914;37.554;2023-03-15T03:26:26;98458.78;;;7.17;44.38
31088;BME280;17745;55.914;37.554;2023-03-15T03:28:58;98458.78;;;7.17;44.41
31088;BME280;17745;55.914;37.554;2023-03-15T03:31:26;98466.19;;;7.20;44.37
31088;BME280;17745;55.914;37.554;2023-03-15T03:33:55;98470.97;;;7.23;44.30
31088;BME280;17745;55.914;37.554;2023-03-15T03:36:23;98451.63;;;7.12;44.60
31088;BME280;17745;55.914;37.554;2023-03-15T03:38:51;98464.88;;;7.17;44.51
31088;BME280;17745;55.914;37.554;2023-03-15T03:41:19;98472.50;;;7.19;44.49
31088;BME280;17745;55.914;37.554;2023-03-15T03:43:47;98467.00;;;7.20;44.49
31088;BME280;17745;55.914;37.554;2023-03-15T03:46:15;98464.91;;;7.22;44.45
31088;BME280;17745;55.914;37.554;2023-03-15T03:48:43;98484.13;;;7.23;44.43
31088;BME280;17745;55.914;37.554;2023-03-15T03:51:12;98488.34;;;7.24;44.47
31088;BME280;17745;55.914;37.554;2023-03-15T03:53:40;98481.22;;;7.19;44.56
31088;BME280;17745;55.914;37.554;2023-03-15T03:56:07;98465.09;;;7.15;44.56
31088;BME280;17745;55.914;37.554;2023-03-15T03:58:35;98479.91;;;7.22;44.53
31088;BME280;17745;55.914;37.554;2023-03-15T04:01:04;98478.06;;;7.22;44.52
31088;BME280;17745;55.914;37.554;2023-03-15T04:03:32;98483.06;;;7.24;44.52
31088;BME280;17745;55.914;37.554;2023-03-15T04:06:01;98476.78;;;7.25;44.52
31088;BME280;17745;55.914;37.554;2023-03-15T04:08:32;98475.19;;;7.24;44.53
31088;BME280;17745;55.914;37.554;2023-03-15T04:11:01;98479.44;;;7.25;44.53
31088;BME280;17745;55.914;37.554;2023-03-15T04:13:30;98476.03;;;7.29;44.51
31088;BME280;17745;55.914;37.554;2023-03-15T04:15:58;98453.03;;;7.20;44.60
31088;BME280;17745;55.914;37.554;2023-03-15T04:18:29;98455.72;;;7.25;44.54
31088;BME280;17745;55.914;37.554;2023-03-15T04:20:57;98472.31;;;7.25;44.53
31088;BME280;17745;55.914;37.554;2023-03-15T04:23:24;98462.09;;;7.29;44.48
31088;BME280;17745;55.914;37.554;2023-03-15T04:25:54;98464.53;;;7.36;44.40
31088;BME280;17745;55.914;37.554;2023-03-15T04:28:25;98447.16;;;7.40;44.38
31088;BME280;17745;55.914;37.554;2023-03-15T04:30:55;98469.03;;;7.40;44.32
31088;BME280;17745;55.914;37.554;2023-03-15T04:33:27;98454.81;;;7.41;44.29
31088;BME280;17745;55.914;37.554;2023-03-15T04:35:56;98465.66;;;7.45;44.26
31088;BME280;17745;55.914;37.554;2023-03-15T04:38:24;98463.00;;;7.45;44.17
31088;BME280;17745;55.914;37.554;2023-03-15T04:40:55;98477.25;;;7.49;44.15
31088;BME280;17745;55.914;37.554;2023-03-15T04:43:23;98474.34;;;7.46;44.08
31088;BME280;17745;55.914;37.554;2023-03-15T04:45:51;98484.66;;;7.52;44.02
31088;BME280;17745;55.914;37.554;2023-03-15T04:48:19;98474.81;;;7.42;44.07
31088;BME280;17745;55.914;37.554;2023-03-15T04:50:48;98481.94;;;7.42;44.09
31088;BME280;17745;55.914;37.554;2023-03-15T04:53:15;98490.94;;;7.46;43.98
31088;BME280;17745;55.914;37.554;2023-03-15T04:55:43;98480.62;;;7.44;44.08
31088;BME280;17745;55.914;37.554;2023-03-15T04:58:14;98501.47;;;7.46;44.04
31088;BME280;17745;55.914;37.554;2023-03-15T05:00:42;98502.56;;;7.50;43.96
31088;BME280;17745;55.914;37.554;2023-03-15T05:03:10;98505.72;;;7.52;43.93
31088;BME280;17745;55.914;37.554;2023-03-15T05:05:38;98514.69;;;7.51;43.96
31088;BME280;17745;55.914;37.554;2023-03-15T05:08:07;98521.84;;;7.56;43.88
31088;BME280;17745;55.914;37.554;2023-03-15T05:10:34;98531.38;;;7.62;43.82
31088;BME280;17745;55.914;37.554;2023-03-15T05:13:05;98525.56;;;7.60;43.83
31088;BME280;17745;55.914;37.554;2023-03-15T05:15:34;98521.38;;;7.64;43.73
31088;BME280;17745;55.914;37.554;2023-03-15T05:18:02;98534.50;;;7.59;43.79
31088;BME280;17745;55.914;37.554;2023-03-15T05:20:33;98530.34;;;7.63;43.69
31088;BME280;17745;55.914;37.554;2023-03-15T05:23:02;98527.41;;;7.60;43.65
31088;BME280;17745;55.914;37.554;2023-03-15T05:25:30;98517.22;;;7.68;43.48
31088;BME280;17745;55.914;37.554;2023-03-15T05:27:59;98542.25;;;7.71;43.40
31088;BME280;17745;55.914;37.554;2023-03-15T05:30:29;98527.66;;;7.58;43.50
31088;BME280;17745;55.914;37.554;2023-03-15T05:33:01;98531.69;;;7.66;43.44
31088;BME280;17745;55.914;37.554;2023-03-15T05:35:33;98538.84;;;7.70;43.20
31088;BME280;17745;55.914;37.554;2023-03-15T05:38:01;98542.34;;;7.76;43.20
31088;BME280;17745;55.914;37.554;2023-03-15T05:40:29;98547.16;;;7.90;43.19
31088;BME280;17745;55.914;37.554;2023-03-15T05:42:57;98542.97;;;7.94;43.12
31088;BME280;17745;55.914;37.554;2023-03-15T05:45:25;98536.72;;;8.00;42.97
31088;BME280;17745;55.914;37.554;2023-03-15T05:48:04;98548.34;;;8.04;42.89
31088;BME280;17745;55.914;37.554;2023-03-15T05:50:32;98541.50;;;8.03;42.69
31088;BME280;17745;55.914;37.554;2023-03-15T05:53:03;98537.81;;;8.04;42.90
31088;BME280;17745;55.914;37.554;2023-03-15T05:55:31;98552.06;;;8.08;42.81
31088;BME280;17745;55.914;37.554;2023-03-15T05:57:59;98541.62;;;8.19;42.73
31088;BME280;17745;55.914;37.554;2023-03-15T06:00:27;98567.19;;;8.18;42.42
31088;BME280;17745;55.914;37.554;2023-03-15T06:02:55;98548.47;;;8.20;42.36
31088;BME280;17745;55.914;37.554;2023-03-15T06:05:25;98548.47;;;8.20;42.35
31088;BME280;17745;55.914;37.554;2023-03-15T06:07:55;98557.19;;;8.25;42.23
31088;BME280;17745;55.914;37.554;2023-03-15T06:10:28;98566.13;;;8.19;42.03
31088;BME280;17745;55.914;37.554;2023-03-15T06:13:03;98562.94;;;8.17;42.03
31088;BME280;17745;55.914;37.554;2023-03-15T06:15:33;98557.16;;;8.20;41.96
31088;BME280;17745;55.914;37.554;2023-03-15T06:18:01;98580.19;;;8.30;41.83
31088;BME280;17745;55.914;37.554;2023-03-15T06:20:31;98565.44;;;8.34;41.81
31088;BME280;17745;55.914;37.554;2023-03-15T06:23:00;98569.28;;;8.54;41.70
31088;BME280;17745;55.914;37.554;2023-03-15T06:25:29;98547.97;;;8.61;41.53
31088;BME280;17745;55.914;37.554;2023-03-15T06:27:57;98572.59;;;8.77;41.30
31088;BME280;17745;55.914;37.554;2023-03-15T06:30:25;98577.44;;;8.95;41.16
31088;BME280;17745;55.914;37.554;2023-03-15T06:32:54;98571.44;;;9.10;40.79
31088;BME280;17745;55.914;37.554;2023-03-15T06:35:24;98583.87;;;9.15;40.67
31088;BME280;17745;55.914;37.554;2023-03-15T06:37:55;98584.16;;;9.24;40.66
31088;BME280;17745;55.914;37.554;2023-03-15T06:40:23;98577.06;;;9.24;40.17
31088;BME280;17745;55.914;37.554;2023-03-15T06:42:51;98586.62;;;9.41;40.17
31088;BME280;17745;55.914;37.554;2023-03-15T06:45:20;98576.88;;;9.62;39.92
31088;BME280;17745;55.914;37.554;2023-03-15T06:47:47;98585.91;;;9.71;39.77
31088;BME280;17745;55.914;37.554;2023-03-15T06:50:16;98593.84;;;9.87;39.58
31088;BME280;17745;55.914;37.554;2023-03-15T06:52:44;98609.72;;;9.97;39.49
31088;BME280;17745;55.914;37.554;2023-03-15T06:55:14;98590.41;;;9.86;39.32
31088;BME280;17745;55.914;37.554;2023-03-15T06:57:44;98601.22;;;9.69;39.30
31088;BME280;17745;55.914;37.554;2023-03-15T07:00:15;98615.50;;;9.79;39.31
31088;BME280;17745;55.914;37.554;2023-03-15T07:02:47;98606.78;;;9.78;39.32
31088;BME280;17745;55.914;37.554;2023-03-15T07:05:15;98618.69;;;9.76;39.37
31088;BME280;17745;55.914;37.554;2023-03-15T07:07:42;98599.13;;;9.77;39.47
31088;BME280;17745;55.914;37.554;2023-03-15T07:10:10;98590.63;;;9.64;39.29
31088;BME280;17745;55.914;37.554;2023-03-15T07:12:40;98598.53;;;9.54;39.26
31088;BME280;17745;55.914;37.554;2023-03-15T07:15:08;98608.88;;;9.61;39.33
31088;BME280;17745;55.914;37.554;2023-03-15T07:17:39;98633.47;;;9.71;39.20
31088;BME280;17745;55.914;37.554;2023-03-15T07:20:10;98626.84;;;9.74;39.10
31088;BME280;17745;55.914;37.554;2023-03-15T07:22:38;98619.22;;;9.78;39.19
31088;BME280;17745;55.914;37.554;2023-03-15T07:25:08;98627.19;;;9.93;39.16
31088;BME280;17745;55.914;37.554;2023-03-15T07:27:36;98622.16;;;10.07;39.13
31088;BME280;17745;55.914;37.554;2023-03-15T07:30:08;98623.75;;;10.19;38.99
31088;BME280;17745;55.914;37.554;2023-03-15T07:32:36;98625.09;;;10.32;38.73
31088;BME280;17745;55.914;37.554;2023-03-15T07:35:04;98626.44;;;10.44;38.65
31088;BME280;17745;55.914;37.554;2023-03-15T07:37:39;98622.97;;;10.49;38.52
31088;BME280;17745;55.914;37.554;2023-03-15T07:40:08;98621.91;;;10.40;38.38
31088;BME280;17745;55.914;37.554;2023-03-15T07:42:38;98624.59;;;10.55;38.42
31088;BME280;17745;55.914;37.554;2023-03-15T07:45:20;98627.72;;;10.68;38.17
31088;BME280;17745;55.914;37.554;2023-03-15T07:48:18;98616.63;;;10.76;38.01
31088;BME280;17745;55.914;37.554;2023-03-15T07:51:28;98629.53;;;10.93;37.99
31088;BME280;17745;55.914;37.554;2023-03-15T07:54:05;98632.44;;;11.12;37.71
31088;BME280;17745;55.914;37.554;2023-03-15T07:56:36;98631.56;;;11.22;37.72
31088;BME280;17745;55.914;37.554;2023-03-15T07:59:04;98618.06;;;11.24;37.59
31088;BME280;17745;55.914;37.554;2023-03-15T08:01:33;98620.19;;;11.22;37.61
31088;BME280;17745;55.914;37.554;2023-03-15T08:04:06;98618.34;;;11.17;37.50
31088;BME280;17745;55.914;37.554;2023-03-15T08:06:34;98625.53;;;11.17;37.58
31088;BME280;17745;55.914;37.554;2023-03-15T08:09:02;98651.22;;;11.11;37.45
31088;BME280;17745;55.914;37.554;2023-03-15T08:11:47;98640.66;;;11.06;37.39
31088;BME280;17745;55.914;37.554;2023-03-15T08:14:14;98633.53;;;10.96;37.55
31088;BME280;17745;55.914;37.554;2023-03-15T08:16:44;98657.59;;;11.05;37.49
31088;BME280;17745;55.914;37.554;2023-03-15T08:19:11;98650.13;;;11.27;37.48
31088;BME280;17745;55.914;37.554;2023-03-15T08:21:38;98652.94;;;11.47;37.21
31088;BME280;17745;55.914;37.554;2023-03-15T08:24:10;98639.13;;;11.60;37.15
31088;BME280;17745;55.914;37.554;2023-03-15T08:26:38;98647.62;;;11.57;36.79
31088;BME280;17745;55.914;37.554;2023-03-15T08:29:29;98638.91;;;11.46;36.76
31088;BME280;17745;55.914;37.554;2023-03-15T08:32:17;98647.66;;;11.47;36.56
31088;BME280;17745;55.914;37.554;2023-03-15T08:34:47;98646.66;;;11.27;36.58
31088;BME280;17745;55.914;37.554;2023-03-15T08:37:16;98657.03;;;11.23;36.91
31088;BME280;17745;55.914;37.554;2023-03-15T08:39:44;98649.91;;;11.13;36.95
31088;BME280;17745;55.914;37.554;2023-03-15T08:42:13;98671.88;;;11.14;37.04
31088;BME280;17745;55.914;37.554;2023-03-15T08:44:44;98652.53;;;11.19;37.15
31088;BME280;17745;55.914;37.554;2023-03-15T08:47:11;98656.19;;;11.28;37.16
31088;BME280;17745;55.914;37.554;2023-03-15T08:49:41;98642.97;;;11.33;36.96
31088;BME280;17745;55.914;37.554;2023-03-15T08:52:09;98637.66;;;11.33;37.06
31088;BME280;17745;55.914;37.554;2023-03-15T08:54:37;98653.56;;;11.28;37.06
31088;BME280;17745;55.914;37.554;2023-03-15T08:57:06;98648.81;;;11.20;37.09
31088;BME280;17745;55.914;37.554;2023-03-15T08:59:34;98648.56;;;11.16;37.01
31088;BME280;17745;55.914;37.554;2023-03-15T09:02:04;98640.38;;;11.12;36.93
31088;BME280;17745;55.914;37.554;2023-03-15T09:04:35;98635.63;;;10.99;37.23
31088;BME280;17745;55.914;37.554;2023-03-15T09:07:10;98634.59;;;10.84;37.40
31088;BME280;17745;55.914;37.554;2023-03-15T09:09:43;98635.34;;;11.00;37.42
31088;BME280;17745;55.914;37.554;2023-03-15T09:12:14;98646.72;;;11.17;37.30
31088;BME280;17745;55.914;37.554;2023-03-15T09:14:43;98621.00;;;11.17;37.29
31088;BME280;17745;55.914;37.554;2023-03-15T09:17:11;98643.53;;;11.09;37.43
31088;BME280;17745;55.914;37.554;2023-03-15T09:19:40;98633.41;;;11.27;37.44
31088;BME280;17745;55.914;37.554;2023-03-15T09:22:09;98628.91;;;11.33;37.40
31088;BME280;17745;55.914;37.554;2023-03-15T09:24:38;98632.84;;;11.40;37.48
31088;BME280;17745;55.914;37.554;2023-03-15T09:27:06;98636.28;;;11.46;37.54
31088;BME280;17745;55.914;37.554;2023-03-15T09:29:34;98625.97;;;11.39;37.70
31088;BME280;17745;55.914;37.554;2023-03-15T09:32:04;98622.28;;;11.35;37.93
31088;BME280;17745;55.914;37.554;2023-03-15T09:34:34;98624.41;;;11.33;38.12
31088;BME280;17745;55.914;37.554;2023-03-15T09:37:18;98634.69;;;11.40;38.16
31088;BME280;17745;55.914;37.554;2023-03-15T09:39:52;98645.78;;;11.52;38.27
31088;BME280;17745;55.914;37.554;2023-03-15T09:42:32;98639.91;;;11.66;38.20
31088;BME280;17745;55.914;37.554;2023-03-15T09:45:12;98642.28;;;11.62;38.24
31088;BME280;17745;55.914;37.554;2023-03-15T09:47:56;98656.03;;;11.69;38.24
31088;BME280;17745;55.914;37.554;2023-03-15T09:50:30;98658.59;;;11.85;38.08
31088;BME280;17745;55.914;37.554;2023-03-15T09:53:04;98659.63;;;11.89;38.01
31088;BME280;17745;55.914;37.554;2023-03-15T09:55:38;98639.50;;;11.88;37.92
31088;BME280;17745;55.914;37.554;2023-03-15T09:58:12;98667.13;;;11.82;38.10
31088;BME280;17745;55.914;37.554;2023-03-15T10:00:47;98668.19;;;11.81;38.26
31088;BME280;17745;55.914;37.554;2023-03-15T10:03:23;98663.88;;;11.95;38.21
31088;BME280;17745;55.914;37.554;2023-03-15T10:05:59;98666.13;;;12.18;38.03
31088;BME280;17745;55.914;37.554;2023-03-15T10:08:48;98658.22;;;12.47;37.74
31088;BME280;17745;55.914;37.554;2023-03-15T10:11:23;98674.72;;;12.73;37.65
31088;BME280;17745;55.914;37.554;2023-03-15T10:14:08;98666.28;;;12.96;37.40
31088;BME280;17745;55.914;37.554;2023-03-15T10:16:44;98666.13;;;13.11;37.20
31088;BME280;17745;55.914;37.554;2023-03-15T10:19:30;98669.28;;;13.38;37.05
31088;BME280;17745;55.914;37.554;2023-03-15T10:22:10;98677.78;;;13.64;36.86
31088;BME280;17745;55.914;37.554;2023-03-15T10:24:52;98673.84;;;13.81;36.73
31088;BME280;17745;55.914;37.554;2023-03-15T10:27:26;98673.28;;;14.03;36.52
31088;BME280;17745;55.914;37.554;2023-03-15T10:30:00;98683.19;;;14.17;36.32
31088;BME280;17745;55.914;37.554;2023-03-15T10:32:39;98679.88;;;14.25;36.13
31088;BME280;17745;55.914;37.554;2023-03-15T10:35:18;98668.88;;;14.32;35.79
31088;BME280;17745;55.914;37.554;2023-03-15T10:38:11;98684.28;;;14.15;35.88
31088;BME280;17745;55.914;37.554;2023-03-15T10:40:52;98689.59;;;14.15;35.67
31088;BME280;17745;55.914;37.554;2023-03-15T10:43:25;98681.13;;;14.13;35.59
31088;BME280;17745;55.914;37.554;2023-03-15T10:46:00;98672.28;;;13.99;35.94
31088;BME280;17745;55.914;37.554;2023-03-15T10:48:51;98678.41;;;13.99;35.84
31088;BME280;17745;55.914;37.554;2023-03-15T10:51:23;98671.62;;;13.88;35.89
31088;BME280;17745;55.914;37.554;2023-03-15T10:53:59;98667.06;;;13.50;36.34
31088;BME280;17745;55.914;37.554;2023-03-15T10:56:35;98669.22;;;13.48;36.36
31088;BME280;17745;55.914;37.554;2023-03-15T10:59:17;98675.31;;;13.49;36.50
31088;BME280;17745;55.914;37.554;2023-03-15T11:01:48;98667.87;;;13.70;36.35
31088;BME280;17745;55.914;37.554;2023-03-15T11:04:27;98659.97;;;13.84;35.86
31088;BME280;17745;55.914;37.554;2023-03-15T11:07:05;98673.97;;;13.70;36.07
31088;BME280;17745;55.914;37.554;2023-03-15T11:09:42;98656.94;;;13.52;36.27
31088;BME280;17745;55.914;37.554;2023-03-15T11:12:25;98672.94;;;13.47;36.48
31088;BME280;17745;55.914;37.554;2023-03-15T11:14:57;98669.31;;;13.62;36.38
31088;BME280;17745;55.914;37.554;2023-03-15T11:17:36;98653.78;;;13.69;36.26
31088;BME280;17745;55.914;37.554;2023-03-15T11:20:20;98661.34;;;13.81;36.27
31088;BME280;17745;55.914;37.554;2023-03-15T11:25:48;98658.09;;;14.04;36.01
31088;BME280;17745;55.914;37.554;2023-03-15T11:28:26;98654.28;;;14.10;35.88
31088;BME280;17745;55.914;37.554;2023-03-15T11:30:57;98663.88;;;13.92;35.90
31088;BME280;17745;55.914;37.554;2023-03-15T11:33:40;98649.91;;;13.81;36.05
31088;BME280;17745;55.914;37.554;2023-03-15T11:36:18;98645.16;;;13.78;36.19
31088;BME280;17745;55.914;37.554;2023-03-15T11:38:54;98646.09;;;13.87;36.21
31088;BME280;17745;55.914;37.554;2023-03-15T11:41:28;98643.00;;;13.99;36.06
31088;BME280;17745;55.914;37.554;2023-03-15T11:44:15;98644.50;;;13.86;36.06
31088;BME280;17745;55.914;37.554;2023-03-15T11:46:49;98646.09;;;13.68;36.25
31088;BME280;17745;55.914;37.554;2023-03-15T11:49:29;98652.03;;;13.60;36.50
31088;BME280;17745;55.914;37.554;2023-03-15T11:51:57;98650.97;;;13.61;36.49
31088;BME280;17745;55.914;37.554;2023-03-15T11:54:30;98643.63;;;13.71;36.45
31088;BME280;17745;55.914;37.554;2023-03-15T11:57:02;98651.53;;;13.77;36.38
31088;BME280;17745;55.914;37.554;2023-03-15T11:59:36;98640.62;;;13.78;36.47
31088;BME280;17745;55.914;37.554;2023-03-15T12:02:35;98640.19;;;13.90;36.42
31088;BME280;17745;55.914;37.554;2023-03-15T12:05:41;98639.25;;;14.19;36.17
31088;BME280;17745;55.914;37.554;2023-03-15T12:08:18;98636.53;;;14.38;35.59
31088;BME280;17745;55.914;37.554;2023-03-15T12:10:48;98636.69;;;14.61;35.35
31088;BME280;17745;55.914;37.554;2023-03-15T12:13:18;98637.25;;;14.77;35.10
31088;BME280;17745;55.914;37.554;2023-03-15T12:15:49;98633.09;;;14.71;35.10
31088;BME280;17745;55.914;37.554;2023-03-15T12:18:33;98637.50;;;14.62;35.26
31088;BME280;17745;55.914;37.554;2023-03-15T12:21:17;98635.72;;;14.57;35.26
31088;BME280;17745;55.914;37.554;2023-03-15T12:23:55;98646.16;;;14.53;35.31
31088;BME280;17745;55.914;37.554;2023-03-15T12:26:31;98647.66;;;14.60;35.27
31088;BME280;17745;55.914;37.554;2023-03-15T12:29:11;98660.37;;;14.63;35.24
31088;BME280;17745;55.914;37.554;2023-03-15T12:31:55;98653.19;;;14.63;35.16
31088;BME280;17745;55.914;37.554;2023-03-15T12:34:29;98651.34;;;14.44;35.25
31088;BME280;17745;55.914;37.554;2023-03-15T12:37:05;98645.97;;;14.30;35.43
31088;BME280;17745;55.914;37.554;2023-03-15T12:39:46;98650.19;;;14.51;35.31
31088;BME280;17745;55.914;37.554;2023-03-15T12:45:41;98645.00;;;15.21;34.16
31088;BME280;17745;55.914;37.554;2023-03-15T12:48:23;98657.91;;;15.13;34.38
31088;BME280;17745;55.914;37.554;2023-03-15T12:50:57;98658.97;;;14.84;34.66
31088;BME280;17745;55.914;37.554;2023-03-15T12:53:45;98654.31;;;14.76;34.85
31088;BME280;17745;55.914;37.554;2023-03-15T12:56:41;98659.47;;;14.72;34.97
31088;BME280;17745;55.914;37.554;2023-03-15T12:59:30;98668.97;;;14.60;34.87
31088;BME280;17745;55.914;37.554;2023-03-15T13:02:30;98660.37;;;15.10;34.26
31088;BME280;17745;55.914;37.554;2023-03-15T13:05:10;98660.53;;;15.69;33.38
31088;BME280;17745;55.914;37.554;2023-03-15T13:07:49;98665.56;;;16.22;32.96
31088;BME280;17745;55.914;37.554;2023-03-15T13:10:29;98667.06;;;16.60;32.23
31088;BME280;17745;55.914;37.554;2023-03-15T13:13:07;98652.69;;;16.47;32.32
31088;BME280;17745;55.914;37.554;2023-03-15T13:15:41;98648.97;;;15.60;33.21
31088;BME280;17745;55.914;37.554;2023-03-15T13:18:15;98660.06;;;14.83;34.17
31088;BME280;17745;55.914;37.554;2023-03-15T13:20:54;98654.69;;;14.36;34.88
31088;BME280;17745;55.914;37.554;2023-03-15T13:23:26;98656.03;;;14.34;35.13
31088;BME280;17745;55.914;37.554;2023-03-15T13:26:03;98665.09;;;14.85;34.72
31088;BME280;17745;55.914;37.554;2023-03-15T13:28:37;98663.56;;;15.26;34.03
31088;BME280;17745;55.914;37.554;2023-03-15T13:31:15;98660.84;;;14.98;34.28
31088;BME280;17745;55.914;37.554;2023-03-15T13:33:51;98656.91;;;14.62;34.85